sensor_id;sensor_type;location;lat;lon;timestamp;P1;durP1;ratioP1;P2;durP2;ratioP2
27303;SDS011;14791;52.392;13.092;2022-12-18T00:00:18;17.03;;;11.37;;
27303;SDS011;14791;52.392;13.092;2022-12-18T00:02:47;14.63;;;10.33;;
27303;SDS011;14791;52.392;13.092;2022-12-18T00:05:16;13.07;;;9.30;;
27303;SDS011;14791;52.392;13.092;2022-12-18T00:07:47;15.47;;;10.73;;
27303;SDS011;14791;52.392;13.092;2022-12-18T00:10:16;16.90;;;10.70;;
27303;SDS011;14791;52.392;13.092;2022-12-18T00:12:44;12.87;;;9.70;;
27303;SDS011;14791;52.392;13.092;2022-12-18T00:15:13;17.57;;;12.00;;
27303;SDS011;14791;52.392;13.092;2022-12-18T00:17:42;15.50;;;10.60;;
27303;SDS011;14791;52.392;13.092;2022-12-18T00:20:11;15.17;;;10.87;;
27303;SDS011;14791;52.392;13.092;2022-12-18T00:22:40;16.60;;;11.07;;
27303;SDS011;14791;52.392;13.092;2022-12-18T00:25:09;19.00;;;12.33;;
27303;SDS011;14791;52.392;13.092;2022-12-18T00:27:38;17.70;;;11.50;;
27303;SDS011;14791;52.392;13.092;2022-12-18T00:30:07;16.93;;;11.20;;
27303;SDS011;14791;52.392;13.092;2022-12-18T00:32:37;17.27;;;12.00;;
27303;SDS011;14791;52.392;13.092;2022-12-18T00:35:06;17.97;;;11.50;;
27303;SDS011;14791;52.392;13.092;2022-12-18T00:37:35;16.57;;;11.73;;
27303;SDS011;14791;52.392;13.092;2022-12-18T00:40:04;16.10;;;10.63;;
27303;SDS011;14791;52.392;13.092;2022-12-18T00:42:34;20.17;;;12.80;;
27303;SDS011;14791;52.392;13.092;2022-12-18T00:45:24;17.20;;;11.93;;
27303;SDS011;14791;52.392;13.092;2022-12-18T00:47:55;18.40;;;11.77;;
27303;SDS011;14791;52.392;13.092;2022-12-18T00:50:24;14.03;;;9.83;;
27303;SDS011;14791;52.392;13.092;2022-12-18T00:52:54;18.93;;;11.17;;
27303;SDS011;14791;52.392;13.092;2022-12-18T00:55:23;15.23;;;10.83;;
27303;SDS011;14791;52.392;13.092;2022-12-18T00:57:52;17.40;;;11.43;;
27303;SDS011;14791;52.392;13.092;2022-12-18T01:00:21;17.77;;;11.17;;
27303;SDS011;14791;52.392;13.092;2022-12-18T01:02:50;18.13;;;11.63;;
27303;SDS011;14791;52.392;13.092;2022-12-18T01:05:19;16.83;;;12.17;;
27303;SDS011;14791;52.392;13.092;2022-12-18T01:07:48;13.87;;;10.07;;
27303;SDS011;14791;52.392;13.092;2022-12-18T01:10:17;19.27;;;11.77;;
27303;SDS011;14791;52.392;13.092;2022-12-18T01:12:46;16.77;;;11.47;;
27303;SDS011;14791;52.392;13.092;2022-12-18T01:15:17;20.43;;;12.73;;
27303;SDS011;14791;52.392;13.092;2022-12-18T01:17:46;13.73;;;10.37;;
27303;SDS011;14791;52.392;13.092;2022-12-18T01:20:15;17.90;;;12.37;;
27303;SDS011;14791;52.392;13.092;2022-12-18T01:22:44;19.00;;;12.67;;
27303;SDS011;14791;52.392;13.092;2022-12-18T01:25:13;18.80;;;11.03;;
27303;SDS011;14791;52.392;13.092;2022-12-18T01:27:43;16.73;;;11.30;;
27303;SDS011;14791;52.392;13.092;2022-12-18T01:30:12;19.00;;;11.90;;
27303;SDS011;14791;52.392;13.092;2022-12-18T01:32:41;16.10;;;10.00;;
27303;SDS011;14791;52.392;13.092;2022-12-18T01:35:10;15.63;;;10.50;;
27303;SDS011;14791;52.392;13.092;2022-12-18T01:37:39;13.73;;;9.53;;
27303;SDS011;14791;52.392;13.092;2022-12-18T01:40:08;17.37;;;11.77;;
27303;SDS011;14791;52.392;13.092;2022-12-18T01:42:37;15.30;;;11.00;;
27303;SDS011;14791;52.392;13.092;2022-12-18T01:47:55;18.23;;;11.67;;
27303;SDS011;14791;52.392;13.092;2022-12-18T01:50:36;15.07;;;11.23;;
27303;SDS011;14791;52.392;13.092;2022-12-18T01:53:11;13.50;;;9.70;;
27303;SDS011;14791;52.392;13.092;2022-12-18T01:55:55;16.27;;;11.20;;
27303;SDS011;14791;52.392;13.092;2022-12-18T01:58:28;20.07;;;12.13;;
27303;SDS011;14791;52.392;13.092;2022-12-18T02:00:59;18.10;;;10.77;;
27303;SDS011;14791;52.392;13.092;2022-12-18T02:03:28;18.20;;;10.87;;
27303;SDS011;14791;52.392;13.092;2022-12-18T02:17:02;12.97;;;9.50;;
27303;SDS011;14791;52.392;13.092;2022-12-18T02:28:42;13.80;;;10.30;;
27303;SDS011;14791;52.392;13.092;2022-12-18T02:31:18;15.53;;;10.20;;
27303;SDS011;14791;52.392;13.092;2022-12-18T02:33:48;15.77;;;10.77;;
27303;SDS011;14791;52.392;13.092;2022-12-18T02:36:19;12.00;;;8.90;;
27303;SDS011;14791;52.392;13.092;2022-12-18T02:38:52;15.10;;;10.40;;
27303;SDS011;14791;52.392;13.092;2022-12-18T02:41:23;19.27;;;11.23;;
27303;SDS011;14791;52.392;13.092;2022-12-18T02:43:59;14.47;;;10.17;;
27303;SDS011;14791;52.392;13.092;2022-12-18T02:46:31;15.60;;;11.53;;
27303;SDS011;14791;52.392;13.092;2022-12-18T02:49:21;16.33;;;11.93;;
27303;SDS011;14791;52.392;13.092;2022-12-18T02:57:33;17.77;;;11.73;;
27303;SDS011;14791;52.392;13.092;2022-12-18T03:00:08;17.60;;;11.60;;
27303;SDS011;14791;52.392;13.092;2022-12-18T03:02:39;13.43;;;10.33;;
27303;SDS011;14791;52.392;13.092;2022-12-18T03:05:19;17.43;;;11.43;;
27303;SDS011;14791;52.392;13.092;2022-12-18T03:07:55;16.87;;;11.07;;
27303;SDS011;14791;52.392;13.092;2022-12-18T03:10:28;16.63;;;11.73;;
27303;SDS011;14791;52.392;13.092;2022-12-18T03:13:00;15.10;;;10.60;;
27303;SDS011;14791;52.392;13.092;2022-12-18T03:15:47;14.87;;;10.33;;
27303;SDS011;14791;52.392;13.092;2022-12-18T03:18:23;18.80;;;11.80;;
27303;SDS011;14791;52.392;13.092;2022-12-18T03:20:51;16.30;;;11.70;;
27303;SDS011;14791;52.392;13.092;2022-12-18T03:23:25;14.10;;;9.70;;
27303;SDS011;14791;52.392;13.092;2022-12-18T03:25:58;18.17;;;11.47;;
27303;SDS011;14791;52.392;13.092;2022-12-18T03:28:30;22.93;;;12.50;;
27303;SDS011;14791;52.392;13.092;2022-12-18T03:31:03;16.80;;;11.43;;
27303;SDS011;14791;52.392;13.092;2022-12-18T03:33:35;19.47;;;13.07;;
27303;SDS011;14791;52.392;13.092;2022-12-18T03:36:07;18.70;;;12.33;;
27303;SDS011;14791;52.392;13.092;2022-12-18T03:38:38;21.80;;;13.23;;
27303;SDS011;14791;52.392;13.092;2022-12-18T03:44:18;18.60;;;11.60;;
27303;SDS011;14791;52.392;13.092;2022-12-18T03:46:50;16.47;;;11.53;;
27303;SDS011;14791;52.392;13.092;2022-12-18T03:52:08;16.53;;;10.43;;
27303;SDS011;14791;52.392;13.092;2022-12-18T03:54:41;15.50;;;10.57;;
27303;SDS011;14791;52.392;13.092;2022-12-18T03:57:16;15.90;;;11.00;;
27303;SDS011;14791;52.392;13.092;2022-12-18T03:59:49;12.37;;;9.93;;
27303;SDS011;14791;52.392;13.092;2022-12-18T04:02:22;15.53;;;10.43;;
27303;SDS011;14791;52.392;13.092;2022-12-18T04:04:53;14.80;;;10.30;;
27303;SDS011;14791;52.392;13.092;2022-12-18T04:07:25;13.53;;;9.53;;
27303;SDS011;14791;52.392;13.092;2022-12-18T04:09:56;13.50;;;9.70;;
27303;SDS011;14791;52.392;13.092;2022-12-18T04:12:30;10.33;;;8.87;;
27303;SDS011;14791;52.392;13.092;2022-12-18T04:14:59;12.90;;;10.00;;
27303;SDS011;14791;52.392;13.092;2022-12-18T04:17:29;13.93;;;10.23;;
27303;SDS011;14791;52.392;13.092;2022-12-18T04:19:58;13.37;;;10.23;;
27303;SDS011;14791;52.392;13.092;2022-12-18T04:22:27;15.57;;;10.30;;
27303;SDS011;14791;52.392;13.092;2022-12-18T04:24:58;14.67;;;10.03;;
27303;SDS011;14791;52.392;13.092;2022-12-18T04:27:28;10.97;;;8.73;;
27303;SDS011;14791;52.392;13.092;2022-12-18T04:29:58;13.40;;;9.83;;
27303;SDS011;14791;52.392;13.092;2022-12-18T04:32:26;12.80;;;9.03;;
27303;SDS011;14791;52.392;13.092;2022-12-18T04:34:55;12.53;;;9.87;;
27303;SDS011;14791;52.392;13.092;2022-12-18T04:37:25;14.33;;;10.60;;
27303;SDS011;14791;52.392;13.092;2022-12-18T04:39:54;13.67;;;10.30;;
27303;SDS011;14791;52.392;13.092;2022-12-18T04:42:25;11.53;;;9.20;;
27303;SDS011;14791;52.392;13.092;2022-12-18T04:44:54;13.23;;;9.63;;
27303;SDS011;14791;52.392;13.092;2022-12-18T04:47:23;12.23;;;9.83;;
27303;SDS011;14791;52.392;13.092;2022-12-18T04:49:52;12.63;;;9.40;;
27303;SDS011;14791;52.392;13.092;2022-12-18T04:52:20;13.00;;;9.83;;
27303;SDS011;14791;52.392;13.092;2022-12-18T04:54:49;12.30;;;9.47;;
27303;SDS011;14791;52.392;13.092;2022-12-18T04:57:18;13.00;;;10.40;;
27303;SDS011;14791;52.392;13.092;2022-12-18T04:59:47;12.40;;;10.10;;
27303;SDS011;14791;52.392;13.092;2022-12-18T05:02:16;14.27;;;11.10;;
27303;SDS011;14791;52.392;13.092;2022-12-18T05:04:45;14.10;;;10.23;;
27303;SDS011;14791;52.392;13.092;2022-12-18T05:07:14;11.70;;;9.83;;
27303;SDS011;14791;52.392;13.092;2022-12-18T05:09:43;12.93;;;9.27;;
27303;SDS011;14791;52.392;13.092;2022-12-18T05:12:12;10.00;;;8.97;;
27303;SDS011;14791;52.392;13.092;2022-12-18T05:14:41;13.57;;;10.13;;
27303;SDS011;14791;52.392;13.092;2022-12-18T05:17:09;11.67;;;9.40;;
27303;SDS011;14791;52.392;13.092;2022-12-18T05:19:39;14.37;;;10.37;;
27303;SDS011;14791;52.392;13.092;2022-12-18T05:22:08;12.00;;;9.73;;
27303;SDS011;14791;52.392;13.092;2022-12-18T05:24:37;14.23;;;9.90;;
27303;SDS011;14791;52.392;13.092;2022-12-18T05:27:06;14.23;;;9.83;;
27303;SDS011;14791;52.392;13.092;2022-12-18T05:29:35;13.20;;;9.10;;
27303;SDS011;14791;52.392;13.092;2022-12-18T05:32:04;13.33;;;9.87;;
27303;SDS011;14791;52.392;13.092;2022-12-18T05:34:32;12.93;;;9.93;;
27303;SDS011;14791;52.392;13.092;2022-12-18T05:37:01;13.30;;;10.13;;
27303;SDS011;14791;52.392;13.092;2022-12-18T05:39:30;12.00;;;10.00;;
27303;SDS011;14791;52.392;13.092;2022-12-18T05:41:59;17.30;;;10.37;;
27303;SDS011;14791;52.392;13.092;2022-12-18T05:44:28;12.53;;;9.43;;
27303;SDS011;14791;52.392;13.092;2022-12-18T05:46:57;13.53;;;9.30;;
27303;SDS011;14791;52.392;13.092;2022-12-18T05:49:26;12.10;;;9.63;;
27303;SDS011;14791;52.392;13.092;2022-12-18T05:51:55;8.87;;;7.63;;
27303;SDS011;14791;52.392;13.092;2022-12-18T05:54:23;10.33;;;8.60;;
27303;SDS011;14791;52.392;13.092;2022-12-18T05:56:54;11.63;;;9.23;;
27303;SDS011;14791;52.392;13.092;2022-12-18T05:59:23;14.07;;;10.50;;
27303;SDS011;14791;52.392;13.092;2022-12-18T06:01:52;12.83;;;9.60;;
27303;SDS011;14791;52.392;13.092;2022-12-18T06:04:21;11.57;;;10.13;;
27303;SDS011;14791;52.392;13.092;2022-12-18T06:06:50;10.70;;;8.50;;
27303;SDS011;14791;52.392;13.092;2022-12-18T06:09:19;8.67;;;7.73;;
27303;SDS011;14791;52.392;13.092;2022-12-18T06:11:48;11.83;;;9.67;;
27303;SDS011;14791;52.392;13.092;2022-12-18T06:14:18;11.83;;;8.73;;
27303;SDS011;14791;52.392;13.092;2022-12-18T06:16:47;13.17;;;9.87;;
27303;SDS011;14791;52.392;13.092;2022-12-18T06:19:20;12.37;;;8.97;;
27303;SDS011;14791;52.392;13.092;2022-12-18T06:21:49;13.23;;;10.13;;
27303;SDS011;14791;52.392;13.092;2022-12-18T06:24:18;10.70;;;9.53;;
27303;SDS011;14791;52.392;13.092;2022-12-18T06:26:47;15.33;;;10.77;;
27303;SDS011;14791;52.392;13.092;2022-12-18T06:29:16;11.83;;;10.00;;
27303;SDS011;14791;52.392;13.092;2022-12-18T06:31:45;14.63;;;10.67;;
27303;SDS011;14791;52.392;13.092;2022-12-18T06:34:14;13.80;;;10.27;;
27303;SDS011;14791;52.392;13.092;2022-12-18T06:36:43;12.00;;;9.77;;
27303;SDS011;14791;52.392;13.092;2022-12-18T06:39:12;11.37;;;9.87;;
27303;SDS011;14791;52.392;13.092;2022-12-18T06:41:40;12.60;;;10.40;;
27303;SDS011;14791;52.392;13.092;2022-12-18T06:44:09;12.20;;;10.00;;
27303;SDS011;14791;52.392;13.092;2022-12-18T06:46:38;14.50;;;11.63;;
27303;SDS011;14791;52.392;13.092;2022-12-18T06:49:07;14.13;;;10.47;;
27303;SDS011;14791;52.392;13.092;2022-12-18T06:51:36;11.60;;;9.47;;
27303;SDS011;14791;52.392;13.092;2022-12-18T06:54:05;14.47;;;10.73;;
27303;SDS011;14791;52.392;13.092;2022-12-18T06:56:34;13.40;;;11.03;;
27303;SDS011;14791;52.392;13.092;2022-12-18T06:59:03;11.40;;;10.17;;
27303;SDS011;14791;52.392;13.092;2022-12-18T07:01:32;13.40;;;10.53;;
27303;SDS011;14791;52.392;13.092;2022-12-18T07:04:01;11.33;;;9.60;;
27303;SDS011;14791;52.392;13.092;2022-12-18T07:06:30;13.00;;;10.10;;
27303;SDS011;14791;52.392;13.092;2022-12-18T07:08:59;15.50;;;11.07;;
27303;SDS011;14791;52.392;13.092;2022-12-18T07:11:28;10.50;;;9.40;;
27303;SDS011;14791;52.392;13.092;2022-12-18T07:13:57;13.23;;;10.97;;
27303;SDS011;14791;52.392;13.092;2022-12-18T07:16:26;11.90;;;9.40;;
27303;SDS011;14791;52.392;13.092;2022-12-18T07:18:56;13.80;;;10.90;;
27303;SDS011;14791;52.392;13.092;2022-12-18T07:21:25;13.33;;;10.13;;
27303;SDS011;14791;52.392;13.092;2022-12-18T07:23:54;12.20;;;10.43;;
27303;SDS011;14791;52.392;13.092;2022-12-18T07:26:23;12.00;;;9.77;;
27303;SDS011;14791;52.392;13.092;2022-12-18T07:28:56;15.07;;;11.40;;
27303;SDS011;14791;52.392;13.092;2022-12-18T07:31:25;15.30;;;11.20;;
27303;SDS011;14791;52.392;13.092;2022-12-18T07:33:54;13.83;;;11.93;;
27303;SDS011;14791;52.392;13.092;2022-12-18T07:36:23;12.17;;;10.93;;
27303;SDS011;14791;52.392;13.092;2022-12-18T07:38:52;11.30;;;9.53;;
27303;SDS011;14791;52.392;13.092;2022-12-18T07:41:21;17.10;;;12.17;;
27303;SDS011;14791;52.392;13.092;2022-12-18T07:43:50;15.33;;;11.00;;
27303;SDS011;14791;52.392;13.092;2022-12-18T07:46:19;15.03;;;12.47;;
27303;SDS011;14791;52.392;13.092;2022-12-18T07:48:48;14.80;;;11.27;;
27303;SDS011;14791;52.392;13.092;2022-12-18T07:51:17;14.97;;;12.33;;
27303;SDS011;14791;52.392;13.092;2022-12-18T07:53:47;16.40;;;12.90;;
27303;SDS011;14791;52.392;13.092;2022-12-18T07:56:16;14.50;;;10.90;;
27303;SDS011;14791;52.392;13.092;2022-12-18T07:58:45;13.90;;;11.37;;
27303;SDS011;14791;52.392;13.092;2022-12-18T08:01:13;16.50;;;12.33;;
27303;SDS011;14791;52.392;13.092;2022-12-18T08:03:42;12.20;;;10.33;;
27303;SDS011;14791;52.392;13.092;2022-12-18T08:06:11;15.63;;;12.33;;
27303;SDS011;14791;52.392;13.092;2022-12-18T08:08:40;16.77;;;12.80;;
27303;SDS011;14791;52.392;13.092;2022-12-18T08:11:09;14.37;;;11.53;;
27303;SDS011;14791;52.392;13.092;2022-12-18T08:13:38;14.20;;;11.33;;
27303;SDS011;14791;52.392;13.092;2022-12-18T08:16:07;11.67;;;9.80;;
27303;SDS011;14791;52.392;13.092;2022-12-18T08:18:36;12.20;;;10.53;;
27303;SDS011;14791;52.392;13.092;2022-12-18T08:21:09;13.33;;;10.03;;
27303;SDS011;14791;52.392;13.092;2022-12-18T08:23:39;13.80;;;11.13;;
27303;SDS011;14791;52.392;13.092;2022-12-18T08:26:09;11.43;;;9.63;;
27303;SDS011;14791;52.392;13.092;2022-12-18T08:28:39;12.97;;;10.57;;
27303;SDS011;14791;52.392;13.092;2022-12-18T08:31:08;14.07;;;10.50;;
27303;SDS011;14791;52.392;13.092;2022-12-18T08:33:38;10.97;;;9.20;;
27303;SDS011;14791;52.392;13.092;2022-12-18T08:36:08;12.63;;;10.60;;
27303;SDS011;14791;52.392;13.092;2022-12-18T08:38:37;11.10;;;9.97;;
27303;SDS011;14791;52.392;13.092;2022-12-18T08:41:07;14.90;;;10.87;;
27303;SDS011;14791;52.392;13.092;2022-12-18T08:43:39;13.17;;;10.77;;
27303;SDS011;14791;52.392;13.092;2022-12-18T08:46:26;10.30;;;9.27;;
27303;SDS011;14791;52.392;13.092;2022-12-18T08:48:57;11.90;;;10.53;;
27303;SDS011;14791;52.392;13.092;2022-12-18T08:51:26;9.67;;;8.73;;
27303;SDS011;14791;52.392;13.092;2022-12-18T08:53:55;12.10;;;10.27;;
27303;SDS011;14791;52.392;13.092;2022-12-18T08:56:24;11.27;;;10.00;;
27303;SDS011;14791;52.392;13.092;2022-12-18T08:58:53;9.60;;;8.23;;
27303;SDS011;14791;52.392;13.092;2022-12-18T09:01:23;10.33;;;9.30;;
27303;SDS011;14791;52.392;13.092;2022-12-18T09:03:52;12.17;;;10.93;;
27303;SDS011;14791;52.392;13.092;2022-12-18T09:06:22;10.90;;;9.73;;
27303;SDS011;14791;52.392;13.092;2022-12-18T09:08:52;10.53;;;9.20;;
27303;SDS011;14791;52.392;13.092;2022-12-18T09:11:22;9.90;;;9.10;;
27303;SDS011;14791;52.392;13.092;2022-12-18T09:13:53;10.17;;;8.90;;
27303;SDS011;14791;52.392;13.092;2022-12-18T09:16:24;13.00;;;10.27;;
27303;SDS011;14791;52.392;13.092;2022-12-18T09:18:55;11.20;;;9.67;;
27303;SDS011;14791;52.392;13.092;2022-12-18T09:21:27;9.50;;;8.57;;
27303;SDS011;14791;52.392;13.092;2022-12-18T09:23:58;11.53;;;9.23;;
27303;SDS011;14791;52.392;13.092;2022-12-18T09:26:27;10.87;;;9.77;;
27303;SDS011;14791;52.392;13.092;2022-12-18T09:28:56;13.37;;;11.13;;
27303;SDS011;14791;52.392;13.092;2022-12-18T09:31:25;16.27;;;12.07;;
27303;SDS011;14791;52.392;13.092;2022-12-18T09:33:54;15.03;;;12.10;;
27303;SDS011;14791;52.392;13.092;2022-12-18T09:36:24;12.93;;;10.43;;
27303;SDS011;14791;52.392;13.092;2022-12-18T09:38:53;12.90;;;9.93;;
27303;SDS011;14791;52.392;13.092;2022-12-18T09:44:17;13.67;;;10.97;;
27303;SDS011;14791;52.392;13.092;2022-12-18T09:47:30;14.70;;;11.83;;
27303;SDS011;14791;52.392;13.092;2022-12-18T09:49:29;13.67;;;11.73;;
27303;SDS011;14791;52.392;13.092;2022-12-18T09:52:02;15.93;;;12.47;;
27303;SDS011;14791;52.392;13.092;2022-12-18T09:54:33;15.07;;;12.23;;
27303;SDS011;14791;52.392;13.092;2022-12-18T09:57:14;14.23;;;12.23;;
27303;SDS011;14791;52.392;13.092;2022-12-18T09:59:46;16.73;;;13.00;;
27303;SDS011;14791;52.392;13.092;2022-12-18T10:02:20;14.80;;;12.33;;
27303;SDS011;14791;52.392;13.092;2022-12-18T10:05:05;14.53;;;11.97;;
27303;SDS011;14791;52.392;13.092;2022-12-18T10:10:41;12.73;;;11.30;;
27303;SDS011;14791;52.392;13.092;2022-12-18T10:21:41;17.57;;;12.83;;
27303;SDS011;14791;52.392;13.092;2022-12-18T10:24:29;15.47;;;11.30;;
27303;SDS011;14791;52.392;13.092;2022-12-18T10:26:59;15.77;;;12.20;;
27303;SDS011;14791;52.392;13.092;2022-12-18T10:29:38;12.97;;;11.03;;
27303;SDS011;14791;52.392;13.092;2022-12-18T10:32:09;12.40;;;11.10;;
27303;SDS011;14791;52.392;13.092;2022-12-18T10:34:46;15.03;;;11.73;;
27303;SDS011;14791;52.392;13.092;2022-12-18T10:37:18;14.40;;;12.07;;
27303;SDS011;14791;52.392;13.092;2022-12-18T10:40:08;14.53;;;11.10;;
27303;SDS011;14791;52.392;13.092;2022-12-18T10:42:39;12.20;;;10.60;;
27303;SDS011;14791;52.392;13.092;2022-12-18T10:45:13;13.07;;;11.33;;
27303;SDS011;14791;52.392;13.092;2022-12-18T10:47:43;13.63;;;11.60;;
27303;SDS011;14791;52.392;13.092;2022-12-18T10:50:29;13.13;;;11.13;;
27303;SDS011;14791;52.392;13.092;2022-12-18T10:52:59;11.20;;;9.57;;
27303;SDS011;14791;52.392;13.092;2022-12-18T10:55:34;13.37;;;11.20;;
27303;SDS011;14791;52.392;13.092;2022-12-18T10:58:54;12.97;;;10.97;;
27303;SDS011;14791;52.392;13.092;2022-12-18T11:00:50;13.77;;;11.33;;
27303;SDS011;14791;52.392;13.092;2022-12-18T11:03:46;13.47;;;10.97;;
27303;SDS011;14791;52.392;13.092;2022-12-18T11:06:20;11.10;;;9.93;;
27303;SDS011;14791;52.392;13.092;2022-12-18T11:08:58;12.03;;;10.23;;
27303;SDS011;14791;52.392;13.092;2022-12-18T11:11:29;12.80;;;10.63;;
27303;SDS011;14791;52.392;13.092;2022-12-18T11:14:16;13.17;;;11.47;;
27303;SDS011;14791;52.392;13.092;2022-12-18T11:16:44;12.67;;;10.23;;
27303;SDS011;14791;52.392;13.092;2022-12-18T11:19:25;12.83;;;11.30;;
27303;SDS011;14791;52.392;13.092;2022-12-18T11:21:59;13.43;;;10.50;;
27303;SDS011;14791;52.392;13.092;2022-12-18T11:24:36;12.10;;;10.40;;
27303;SDS011;14791;52.392;13.092;2022-12-18T11:27:05;12.30;;;10.53;;
27303;SDS011;14791;52.392;13.092;2022-12-18T11:29:38;12.33;;;9.53;;
27303;SDS011;14791;52.392;13.092;2022-12-18T11:37:47;9.93;;;8.97;;
27303;SDS011;14791;52.392;13.092;2022-12-18T11:40:20;8.57;;;7.57;;
27303;SDS011;14791;52.392;13.092;2022-12-18T11:42:53;9.90;;;8.43;;
27303;SDS011;14791;52.392;13.092;2022-12-18T11:45:30;9.97;;;8.83;;
27303;SDS011;14791;52.392;13.092;2022-12-18T11:48:05;9.47;;;8.53;;
27303;SDS011;14791;52.392;13.092;2022-12-18T11:53:13;10.40;;;9.00;;
27303;SDS011;14791;52.392;13.092;2022-12-18T11:58:34;9.13;;;8.30;;
27303;SDS011;14791;52.392;13.092;2022-12-18T12:01:10;9.67;;;8.43;;
27303;SDS011;14791;52.392;13.092;2022-12-18T12:09:52;11.23;;;8.30;;
27303;SDS011;14791;52.392;13.092;2022-12-18T12:15:38;9.57;;;8.60;;
27303;SDS011;14791;52.392;13.092;2022-12-18T12:18:27;9.07;;;8.17;;
27303;SDS011;14791;52.392;13.092;2022-12-18T12:21:13;7.70;;;7.00;;
27303;SDS011;14791;52.392;13.092;2022-12-18T12:24:00;7.67;;;6.90;;
27303;SDS011;14791;52.392;13.092;2022-12-18T12:37:29;10.60;;;8.00;;
27303;SDS011;14791;52.392;13.092;2022-12-18T12:39:57;9.53;;;8.53;;
27303;SDS011;14791;52.392;13.092;2022-12-18T12:45:22;10.07;;;9.03;;
27303;SDS011;14791;52.392;13.092;2022-12-18T12:47:56;9.60;;;8.67;;
27303;SDS011;14791;52.392;13.092;2022-12-18T12:50:27;9.60;;;8.70;;
27303;SDS011;14791;52.392;13.092;2022-12-18T12:52:58;10.47;;;9.40;;
27303;SDS011;14791;52.392;13.092;2022-12-18T12:55:28;9.73;;;8.87;;
27303;SDS011;14791;52.392;13.092;2022-12-18T12:58:14;8.23;;;7.53;;
27303;SDS011;14791;52.392;13.092;2022-12-18T13:03:42;8.60;;;7.80;;
27303;SDS011;14791;52.392;13.092;2022-12-18T13:06:16;10.30;;;9.30;;
27303;SDS011;14791;52.392;13.092;2022-12-18T13:09:02;9.87;;;8.90;;
27303;SDS011;14791;52.392;13.092;2022-12-18T13:11:34;9.97;;;9.07;;
27303;SDS011;14791;52.392;13.092;2022-12-18T13:14:31;10.10;;;9.20;;
27303;SDS011;14791;52.392;13.092;2022-12-18T13:17:16;11.00;;;10.00;;
27303;SDS011;14791;52.392;13.092;2022-12-18T13:20:11;10.03;;;9.07;;
27303;SDS011;14791;52.392;13.092;2022-12-18T13:22:45;11.50;;;10.40;;
27303;SDS011;14791;52.392;13.092;2022-12-18T13:28:09;10.43;;;9.53;;
27303;SDS011;14791;52.392;13.092;2022-12-18T13:38:36;9.43;;;8.53;;
27303;SDS011;14791;52.392;13.092;2022-12-18T13:43:56;8.60;;;7.90;;
27303;SDS011;14791;52.392;13.092;2022-12-18T13:51:44;12.77;;;11.37;;
27303;SDS011;14791;52.392;13.092;2022-12-18T13:57:05;8.83;;;8.07;;
27303;SDS011;14791;52.392;13.092;2022-12-18T13:59:37;10.57;;;9.47;;
27303;SDS011;14791;52.392;13.092;2022-12-18T14:02:13;11.37;;;10.27;;
27303;SDS011;14791;52.392;13.092;2022-12-18T14:04:45;10.43;;;9.43;;
27303;SDS011;14791;52.392;13.092;2022-12-18T14:09:52;10.47;;;9.47;;
27303;SDS011;14791;52.392;13.092;2022-12-18T14:12:26;9.07;;;8.27;;
27303;SDS011;14791;52.392;13.092;2022-12-18T14:17:56;9.13;;;8.33;;
27303;SDS011;14791;52.392;13.092;2022-12-18T14:20:31;7.57;;;6.87;;
27303;SDS011;14791;52.392;13.092;2022-12-18T14:23:00;9.33;;;8.50;;
27303;SDS011;14791;52.392;13.092;2022-12-18T14:25:30;11.00;;;9.90;;
27303;SDS011;14791;52.392;13.092;2022-12-18T14:28:04;10.80;;;9.90;;
27303;SDS011;14791;52.392;13.092;2022-12-18T14:30:37;8.87;;;8.17;;
27303;SDS011;14791;52.392;13.092;2022-12-18T14:33:27;8.33;;;7.70;;
27303;SDS011;14791;52.392;13.092;2022-12-18T14:35:57;7.80;;;7.27;;
27303;SDS011;14791;52.392;13.092;2022-12-18T14:38:30;7.53;;;6.83;;
27303;SDS011;14791;52.392;13.092;2022-12-18T14:41:13;8.10;;;7.47;;
27303;SDS011;14791;52.392;13.092;2022-12-18T14:43:45;7.23;;;6.63;;
27303;SDS011;14791;52.392;13.092;2022-12-18T14:46:35;6.23;;;5.73;;
27303;SDS011;14791;52.392;13.092;2022-12-18T14:49:22;7.67;;;6.97;;
27303;SDS011;14791;52.392;13.092;2022-12-18T14:51:56;7.03;;;6.43;;
27303;SDS011;14791;52.392;13.092;2022-12-18T14:54:30;6.13;;;5.73;;
27303;SDS011;14791;52.392;13.092;2022-12-18T14:57:01;7.60;;;7.07;;
27303;SDS011;14791;52.392;13.092;2022-12-18T14:59:32;7.57;;;6.90;;
27303;SDS011;14791;52.392;13.092;2022-12-18T15:04:33;8.13;;;7.47;;
27303;SDS011;14791;52.392;13.092;2022-12-18T15:07:08;9.37;;;8.20;;
27303;SDS011;14791;52.392;13.092;2022-12-18T15:09:39;7.87;;;7.27;;
27303;SDS011;14791;52.392;13.092;2022-12-18T15:12:22;8.87;;;7.97;;
27303;SDS011;14791;52.392;13.092;2022-12-18T15:14:54;9.53;;;8.70;;
27303;SDS011;14791;52.392;13.092;2022-12-18T15:17:23;9.20;;;8.40;;
27303;SDS011;14791;52.392;13.092;2022-12-18T15:19:53;9.30;;;8.47;;
27303;SDS011;14791;52.392;13.092;2022-12-18T15:22:28;10.80;;;9.67;;
27303;SDS011;14791;52.392;13.092;2022-12-18T15:24:59;10.20;;;9.10;;
27303;SDS011;14791;52.392;13.092;2022-12-18T15:27:33;12.03;;;10.77;;
27303;SDS011;14791;52.392;13.092;2022-12-18T15:32:39;12.80;;;11.27;;
27303;SDS011;14791;52.392;13.092;2022-12-18T15:37:41;12.80;;;10.30;;
27303;SDS011;14791;52.392;13.092;2022-12-18T15:40:16;10.93;;;9.73;;
27303;SDS011;14791;52.392;13.092;2022-12-18T15:42:44;8.90;;;8.07;;
27303;SDS011;14791;52.392;13.092;2022-12-18T15:45:33;8.90;;;8.03;;
27303;SDS011;14791;52.392;13.092;2022-12-18T15:48:02;8.90;;;8.20;;
27303;SDS011;14791;52.392;13.092;2022-12-18T15:50:32;8.47;;;7.73;;
27303;SDS011;14791;52.392;13.092;2022-12-18T15:53:01;8.07;;;7.33;;
27303;SDS011;14791;52.392;13.092;2022-12-18T15:55:30;9.13;;;8.30;;
27303;SDS011;14791;52.392;13.092;2022-12-18T15:58:18;10.47;;;9.23;;
27303;SDS011;14791;52.392;13.092;2022-12-18T16:00:47;9.80;;;8.80;;
27303;SDS011;14791;52.392;13.092;2022-12-18T16:03:16;11.03;;;9.93;;
27303;SDS011;14791;52.392;13.092;2022-12-18T16:05:45;12.27;;;9.77;;
27303;SDS011;14791;52.392;13.092;2022-12-18T16:08:14;11.70;;;10.00;;
27303;SDS011;14791;52.392;13.092;2022-12-18T16:10:43;11.17;;;10.00;;
27303;SDS011;14791;52.392;13.092;2022-12-18T16:13:12;10.83;;;9.13;;
27303;SDS011;14791;52.392;13.092;2022-12-18T16:15:44;11.50;;;10.30;;
27303;SDS011;14791;52.392;13.092;2022-12-18T16:18:13;9.73;;;8.83;;
27303;SDS011;14791;52.392;13.092;2022-12-18T16:20:42;11.07;;;9.97;;
27303;SDS011;14791;52.392;13.092;2022-12-18T16:23:11;10.37;;;9.30;;
27303;SDS011;14791;52.392;13.092;2022-12-18T16:25:40;10.70;;;9.60;;
27303;SDS011;14791;52.392;13.092;2022-12-18T16:28:09;9.73;;;8.83;;
27303;SDS011;14791;52.392;13.092;2022-12-18T16:30:38;11.20;;;9.77;;
27303;SDS011;14791;52.392;13.092;2022-12-18T16:33:08;10.00;;;9.10;;
27303;SDS011;14791;52.392;13.092;2022-12-18T16:35:38;10.20;;;9.27;;
27303;SDS011;14791;52.392;13.092;2022-12-18T16:38:07;11.93;;;10.57;;
27303;SDS011;14791;52.392;13.092;2022-12-18T16:40:36;11.30;;;10.20;;
27303;SDS011;14791;52.392;13.092;2022-12-18T16:43:08;9.60;;;8.70;;